Time;durP1;ratioP1;P1;durP2;ratioP2;P2;SDS_P1;SDS_P2;PMS_P1;PMS_P2;Temp;Humidity;BMP_temperature;BMP_pressure;BME280_temperature;BME280_humidity;BME280_pressure;Samples;Min_cycle;Max_cycle;Signal;HPM_P1;HPM_P2
2023/10/26 00:00:08;;;;;;;4.70;2.10;;;15.90;74.40;;;;;;2281672;56;20938;-68
2023/10/26 00:02:34;;;;;;;3.00;1.25;;;16.00;74.50;;;;;;2281113;55;20998;-70
2023/10/26 00:05:01;;;;;;;3.05;1.12;;;16.00;74.50;;;;;;2281914;55;21062;-71
2023/10/26 00:07:28;;;;;;;2.70;0.98;;;15.90;74.30;;;;;;2280974;56;21014;-69
2023/10/26 00:09:54;;;;;;;2.55;0.82;;;15.90;74.30;;;;;;2532003;54;21012;-70
2023/10/26 00:12:21;;;;;;;1.70;0.50;;;15.90;74.30;;;;;;2513968;54;21514;-69
2023/10/26 00:15:15;;;;;;;2.33;0.70;;;15.90;74.30;;;;;;2299398;55;21016;-69
2023/10/26 00:17:42;;;;;;;1.45;0.50;;;16.00;73.90;;;;;;2510004;54;20974;-68
2023/10/26 00:20:14;;;;;;;1.92;0.52;;;15.90;74.30;;;;;;2286554;54;21006;-68
2023/10/26 00:22:40;;;;;;;2.12;0.50;;;15.90;74.20;;;;;;2268986;55;21117;-70
2023/10/26 00:25:30;;;;;;;1.40;0.40;;;15.90;74.30;;;;;;2281469;55;20987;-68
2023/10/26 00:27:58;;;;;;;1.75;0.50;;;16.00;73.90;;;;;;2511738;55;21613;-71
2023/10/26 00:30:25;;;;;;;2.12;0.40;;;15.90;74.30;;;;;;2513809;55;20961;-69
2023/10/26 00:32:54;;;;;;;1.90;0.50;;;15.90;74.20;;;;;;2514643;55;20937;-70
2023/10/26 00:35:21;;;;;;;2.28;0.60;;;15.90;74.00;;;;;;2506345;55;21009;-69
2023/10/26 00:37:48;;;;;;;2.12;0.40;;;15.90;74.10;;;;;;2284155;55;20946;-70
2023/10/26 00:40:16;;;;;;;2.20;0.62;;;15.90;74.10;;;;;;2274965;55;20950;-70
2023/10/26 00:42:45;;;;;;;1.17;0.40;;;15.90;74.10;;;;;;2279710;55;20934;-70
2023/10/26 00:45:11;;;;;;;0.85;0.43;;;15.80;74.00;;;;;;2513352;55;21022;-69
2023/10/26 00:47:38;;;;;;;1.37;0.45;;;15.80;74.00;;;;;;2282263;55;21050;-71
2023/10/26 00:50:06;;;;;;;1.45;0.45;;;15.80;74.00;;;;;;2280396;55;21034;-70
2023/10/26 00:52:35;;;;;;;1.00;0.40;;;15.80;74.00;;;;;;2508188;55;20950;-68
2023/10/26 00:55:05;;;;;;;1.05;0.40;;;15.80;74.00;;;;;;2284388;55;21009;-68
2023/10/26 00:57:34;;;;;;;2.03;0.40;;;15.80;73.90;;;;;;2510639;55;21779;-70
2023/10/26 01:00:08;;;;;;;0.90;0.30;;;15.80;74.60;;;;;;2277444;55;21013;-68
2023/10/26 01:02:35;;;;;;;1.10;0.30;;;15.80;73.90;;;;;;2513955;55;21013;-69
2023/10/26 01:05:01;;;;;;;0.60;0.30;;;15.70;73.80;;;;;;2513093;55;21551;-69
2023/10/26 01:07:29;;;;;;;1.48;0.40;;;15.70;73.70;;;;;;2513493;55;20957;-68
2023/10/26 01:09:56;;;;;;;0.90;0.30;;;15.70;73.70;;;;;;2513801;55;21030;-69
2023/10/26 01:12:23;;;;;;;1.25;0.30;;;15.70;73.50;;;;;;2512978;55;21501;-69
2023/10/26 01:14:54;;;;;;;0.40;0.20;;;15.60;73.40;;;;;;2514795;55;20982;-68
2023/10/26 01:17:20;;;;;;;1.00;0.80;;;15.60;73.30;;;;;;2504748;55;21047;-69
2023/10/26 01:19:47;;;;;;;1.10;0.37;;;15.60;73.30;;;;;;2514161;55;21009;-71
2023/10/26 01:22:15;;;;;;;1.45;0.40;;;15.60;73.30;;;;;;2281320;55;20946;-68
2023/10/26 01:24:42;;;;;;;0.22;0.17;;;15.60;73.30;;;;;;2511916;55;20971;-68
2023/10/26 01:27:11;;;;;;;1.35;0.28;;;15.50;73.20;;;;;;2265977;54;20982;-68
2023/10/26 01:33:07;;;;;;;0.75;0.20;;;15.50;72.60;;;;;;2512551;54;21400;-68
2023/10/26 01:35:44;;;;;;;1.27;0.40;;;15.50;73.10;;;;;;2513592;55;20957;-69
2023/10/26 01:38:14;;;;;;;0.55;0.30;;;15.50;73.00;;;;;;2281204;56;21706;-68
2023/10/26 01:40:41;;;;;;;1.10;0.30;;;15.40;73.00;;;;;;2513203;55;20946;-67
2023/10/26 01:43:08;;;;;;;0.85;0.40;;;15.30;72.90;;;;;;2514187;55;21182;-70
2023/10/26 01:45:34;;;;;;;2.70;0.40;;;15.30;72.80;;;;;;2280295;55;21736;-71
2023/10/26 01:48:02;;;;;;;0.57;0.30;;;15.30;72.90;;;;;;2281474;56;20977;-68
2023/10/26 01:50:32;;;;;;;1.23;0.35;;;15.30;72.90;;;;;;2280344;56;21427;-69
2023/10/26 01:52:58;;;;;;;1.25;0.30;;;15.20;72.60;;;;;;2514159;55;20958;-69
2023/10/26 01:55:25;;;;;;;1.17;0.30;;;15.20;72.80;;;;;;2280432;56;21841;-68
2023/10/26 01:57:51;;;;;;;1.45;0.30;;;15.20;72.90;;;;;;2281884;55;21538;-68
2023/10/26 02:00:18;;;;;;;0.95;0.30;;;15.20;72.90;;;;;;2280431;55;21007;-67
2023/10/26 02:02:49;;;;;;;0.55;0.28;;;15.10;72.90;;;;;;2508692;55;20990;-68
2023/10/26 02:05:16;;;;;;;0.93;0.30;;;15.10;72.80;;;;;;2280488;56;21835;-68
2023/10/26 02:07:43;;;;;;;0.95;0.40;;;15.10;72.80;;;;;;2513597;55;21009;-68
2023/10/26 02:10:12;;;;;;;0.93;0.22;;;15.10;72.80;;;;;;2514300;54;21006;-69
2023/10/26 02:12:40;;;;;;;1.23;0.45;;;15.00;72.70;;;;;;2280523;55;21033;-68
2023/10/26 02:15:06;;;;;;;1.02;0.40;;;15.00;72.80;;;;;;2281010;55;21613;-68
2023/10/26 02:17:34;;;;;;;1.25;0.30;;;15.00;72.80;;;;;;2511005;55;21489;-69
2023/10/26 02:20:00;;;;;;;1.25;0.30;;;14.90;72.70;;;;;;2280496;55;21539;-67
2023/10/26 02:22:26;;;;;;;0.65;0.40;;;14.90;72.70;;;;;;2280572;56;21570;-67
2023/10/26 02:24:53;;;;;;;1.00;0.30;;;14.90;72.70;;;;;;2281808;56;21105;-69
2023/10/26 02:27:32;;;;;;;0.82;0.40;;;14.90;72.70;;;;;;2281128;55;20943;-68
2023/10/26 02:29:58;;;;;;;3.20;0.40;;;14.80;72.20;;;;;;2281573;56;21006;-68
2023/10/26 02:32:24;;;;;;;1.33;0.40;;;14.80;72.60;;;;;;2280602;56;20982;-70
2023/10/26 02:34:51;;;;;;;1.15;0.40;;;14.80;72.60;;;;;;2281611;56;20950;-70
2023/10/26 02:37:18;;;;;;;0.68;0.35;;;14.80;72.70;;;;;;2279265;55;20982;-69
2023/10/26 02:39:45;;;;;;;1.15;0.30;;;14.70;72.60;;;;;;2512349;55;21039;-67
2023/10/26 02:42:13;;;;;;;1.60;0.43;;;14.70;72.70;;;;;;2281058;55;21482;-70
2023/10/26 02:44:39;;;;;;;3.35;0.57;;;14.70;72.80;;;;;;2281042;56;21517;-68
2023/10/26 02:47:06;;;;;;;2.33;0.68;;;14.70;73.70;;;;;;2514903;55;21462;-71
2023/10/26 02:49:33;;;;;;;1.25;0.47;;;14.70;73.00;;;;;;2292451;55;20969;-69
2023/10/26 02:51:59;;;;;;;1.58;0.80;;;14.70;73.10;;;;;;2511971;54;21510;-70
2023/10/26 02:54:26;;;;;;;1.73;0.52;;;14.70;73.20;;;;;;2280845;55;21079;-67
2023/10/26 02:56:53;;;;;;;2.72;0.40;;;14.60;73.20;;;;;;2276258;54;20998;-68
2023/10/26 02:59:19;;;;;;;0.77;0.40;;;14.60;73.30;;;;;;2514147;55;20973;-69
2023/10/26 03:01:46;;;;;;;1.35;0.50;;;14.70;73.50;;;;;;2514426;55;20950;-70
2023/10/26 03:04:12;;;;;;;3.55;0.43;;;14.60;73.50;;;;;;2514486;55;21285;-71
2023/10/26 03:06:39;;;;;;;0.85;0.40;;;14.60;73.50;;;;;;2280959;56;21022;-72
2023/10/26 03:09:05;;;;;;;3.05;0.40;;;14.60;73.50;;;;;;2281364;56;20949;-70
2023/10/26 03:11:32;;;;;;;0.35;0.20;;;14.70;73.60;;;;;;2514150;55;21016;-69
2023/10/26 03:13:58;;;;;;;0.68;0.32;;;14.70;73.60;;;;;;2515278;55;20930;-68
2023/10/26 03:16:25;;;;;;;1.08;0.37;;;14.70;73.60;;;;;;2280778;56;21029;-69
2023/10/26 03:18:51;;;;;;;0.70;0.35;;;14.70;73.70;;;;;;2514314;55;21984;-71
2023/10/26 03:21:20;;;;;;;2.70;0.45;;;14.70;73.70;;;;;;2513464;55;21045;-69
2023/10/26 03:23:52;;;;;;;1.02;0.40;;;14.70;73.70;;;;;;2514405;55;21489;-71
2023/10/26 03:26:19;;;;;;;1.87;0.50;;;14.70;73.70;;;;;;2282485;56;21043;-69
2023/10/26 03:28:45;;;;;;;1.00;0.30;;;14.70;73.80;;;;;;2272398;55;20962;-70
2023/10/26 03:31:12;;;;;;;1.45;0.50;;;14.70;73.80;;;;;;2514635;55;20978;-71
2023/10/26 03:33:39;;;;;;;1.00;0.40;;;14.70;74.50;;;;;;2509411;55;20959;-71
2023/10/26 03:36:12;;;;;;;3.40;0.50;;;14.70;73.90;;;;;;2530888;54;20996;-69
2023/10/26 03:38:39;;;;;;;1.40;0.40;;;14.70;73.70;;;;;;2514159;55;20961;-70
2023/10/26 03:41:06;;;;;;;0.80;0.30;;;14.80;74.00;;;;;;2281177;55;20982;-69
2023/10/26 03:43:32;;;;;;;2.15;0.40;;;14.70;74.00;;;;;;2280864;56;20974;-70
2023/10/26 03:45:59;;;;;;;1.67;0.40;;;14.70;74.00;;;;;;2515004;55;21471;-70
2023/10/26 03:48:25;;;;;;;3.00;0.50;;;14.70;74.00;;;;;;2514184;55;21894;-71
2023/10/26 03:50:52;;;;;;;1.67;0.40;;;14.80;74.30;;;;;;2514213;55;20977;-70
2023/10/26 03:53:18;;;;;;;1.45;0.57;;;14.90;74.50;;;;;;2514628;55;21021;-69
2023/10/26 03:55:44;;;;;;;1.65;0.50;;;14.80;74.50;;;;;;2281968;55;20950;-72
2023/10/26 03:58:12;;;;;;;1.25;0.40;;;14.80;74.70;;;;;;2277831;55;21049;-70
2023/10/26 04:00:38;;;;;;;1.23;0.37;;;14.80;74.70;;;;;;2281246;55;20961;-70
2023/10/26 04:03:04;;;;;;;0.70;0.30;;;14.90;75.00;;;;;;2282339;55;21663;-71
2023/10/26 04:05:31;;;;;;;2.08;0.47;;;14.90;75.10;;;;;;2280520;56;20962;-70
2023/10/26 04:08:00;;;;;;;2.00;0.50;;;14.90;75.10;;;;;;2514843;55;20922;-70
2023/10/26 04:10:27;;;;;;;0.85;0.20;;;15.00;75.30;;;;;;2281186;56;20938;-70
2023/10/26 04:12:53;;;;;;;2.22;0.40;;;15.00;75.30;;;;;;2281345;56;20993;-70
2023/10/26 04:15:20;;;;;;;0.85;0.40;;;15.00;75.40;;;;;;2514523;55;21022;-69
2023/10/26 04:17:47;;;;;;;0.90;0.40;;;15.10;75.50;;;;;;2281524;56;21013;-71
2023/10/26 04:20:14;;;;;;;2.03;0.30;;;15.10;75.50;;;;;;2280442;55;21805;-70
2023/10/26 04:22:40;;;;;;;1.45;0.37;;;15.20;75.60;;;;;;2280387;55;21795;-70
2023/10/26 04:25:07;;;;;;;0.65;0.28;;;15.20;75.60;;;;;;2514595;55;20954;-69
2023/10/26 04:27:35;;;;;;;2.10;0.60;;;15.20;75.60;;;;;;2280522;55;21025;-71
2023/10/26 04:30:01;;;;;;;0.55;0.22;;;15.30;75.70;;;;;;2282026;56;21511;-70
2023/10/26 04:32:28;;;;;;;1.12;0.30;;;15.30;75.60;;;;;;2279907;55;21010;-71
2023/10/26 04:34:54;;;;;;;1.12;0.30;;;15.30;75.70;;;;;;2513727;55;21475;-70
2023/10/26 04:37:21;;;;;;;1.05;0.20;;;15.30;75.60;;;;;;2513911;55;20992;-71
2023/10/26 04:39:48;;;;;;;1.12;0.40;;;15.40;75.70;;;;;;2514410;55;20998;-70
2023/10/26 04:42:15;;;;;;;1.90;0.43;;;15.40;75.60;;;;;;2514496;55;20985;-71
2023/10/26 04:44:43;;;;;;;1.00;0.30;;;15.50;75.70;;;;;;2280720;55;20946;-71
2023/10/26 04:47:10;;;;;;;1.45;0.30;;;15.50;75.70;;;;;;2282115;55;20990;-70
2023/10/26 04:49:36;;;;;;;1.40;0.30;;;15.50;75.70;;;;;;2512662;55;21309;-70
2023/10/26 04:52:03;;;;;;;1.00;0.40;;;15.50;75.70;;;;;;2280661;55;20963;-70
2023/10/26 04:54:29;;;;;;;0.62;0.20;;;15.60;75.70;;;;;;2276355;55;21050;-70
2023/10/26 04:57:26;;;;;;;0.47;0.28;;;15.60;75.70;;;;;;2281046;55;20933;-71
2023/10/26 04:59:52;;;;;;;0.60;0.30;;;15.60;75.30;;;;;;2508013;55;21030;-69
2023/10/26 05:02:19;;;;;;;1.12;0.32;;;15.70;75.70;;;;;;2279605;55;21089;-70
2023/10/26 05:04:45;;;;;;;0.98;0.40;;;15.70;75.70;;;;;;2510354;54;20963;-69
2023/10/26 05:07:12;;;;;;;0.73;0.30;;;15.70;75.80;;;;;;2277664;54;22296;-71
2023/10/26 05:09:39;;;;;;;0.60;0.40;;;15.70;75.70;;;;;;2280322;56;21013;-70
2023/10/26 05:12:05;;;;;;;1.60;0.40;;;15.80;75.80;;;;;;2282084;56;20986;-71
2023/10/26 05:14:32;;;;;;;0.32;0.30;;;15.80;75.80;;;;;;2514532;55;21475;-71
2023/10/26 05:16:58;;;;;;;0.75;0.30;;;15.80;75.80;;;;;;2281711;56;20946;-70
2023/10/26 05:19:25;;;;;;;1.27;0.37;;;15.80;75.70;;;;;;2291377;55;21001;-72
2023/10/26 05:21:51;;;;;;;1.37;0.43;;;15.90;75.80;;;;;;2288802;55;21436;-72
2023/10/26 05:24:18;;;;;;;1.20;0.50;;;15.90;75.80;;;;;;2281704;54;20941;-69
2023/10/26 05:26:45;;;;;;;0.98;0.40;;;15.90;75.70;;;;;;2279359;55;21015;-72
2023/10/26 05:29:11;;;;;;;1.55;0.70;;;15.90;75.70;;;;;;2512191;55;20982;-70
2023/10/26 05:31:38;;;;;;;1.70;0.55;;;16.00;76.00;;;;;;2280808;56;21033;-71
2023/10/26 05:34:04;;;;;;;1.48;0.60;;;16.00;75.80;;;;;;2514987;54;21049;-70
2023/10/26 05:36:33;;;;;;;2.40;0.80;;;16.00;75.80;;;;;;2281500;55;20942;-70
2023/10/26 05:39:00;;;;;;;3.00;1.05;;;16.10;75.70;;;;;;2514581;55;20955;-71
2023/10/26 05:41:26;;;;;;;3.30;1.25;;;16.10;75.80;;;;;;2281241;56;21888;-72
2023/10/26 05:43:56;;;;;;;3.28;1.30;;;16.10;75.70;;;;;;2281472;56;20938;-69
2023/10/26 05:46:22;;;;;;;2.92;1.20;;;16.20;75.70;;;;;;2514277;55;20986;-72
2023/10/26 05:48:48;;;;;;;2.70;1.10;;;16.20;75.80;;;;;;2507931;54;20944;-71
2023/10/26 05:51:14;;;;;;;3.20;1.17;;;16.20;75.70;;;;;;2279821;55;20982;-71
2023/10/26 05:53:41;;;;;;;2.33;0.98;;;16.20;75.70;;;;;;2513934;55;20966;-71
2023/10/26 05:56:11;;;;;;;2.40;1.02;;;16.20;75.70;;;;;;2514777;54;20930;-71
2023/10/26 05:58:37;;;;;;;1.80;0.80;;;16.30;75.60;;;;;;2514065;55;20981;-69
2023/10/26 06:01:04;;;;;;;1.52;0.60;;;16.30;75.70;;;;;;2515059;55;20998;-72
2023/10/26 06:03:30;;;;;;;1.20;0.52;;;16.30;75.70;;;;;;2282490;56;21099;-73
2023/10/26 06:06:00;;;;;;;1.80;0.50;;;16.30;75.60;;;;;;2514811;55;21514;-72
2023/10/26 06:08:27;;;;;;;5.50;0.68;;;16.30;75.50;;;;;;2281972;55;20978;-72
2023/10/26 06:10:53;;;;;;;1.10;0.50;;;16.30;75.50;;;;;;2281115;56;21494;-71
2023/10/26 06:13:20;;;;;;;2.28;0.50;;;16.30;75.50;;;;;;2514503;55;21069;-72
2023/10/26 06:15:46;;;;;;;2.12;0.40;;;16.40;75.60;;;;;;2280647;56;20966;-71
2023/10/26 06:18:13;;;;;;;1.12;0.50;;;16.30;75.50;;;;;;2296922;54;20961;-71
2023/10/26 06:21:02;;;;;;;1.33;0.47;;;16.40;75.60;;;;;;2516053;54;21933;-68
2023/10/26 06:23:28;;;;;;;1.73;0.60;;;16.40;75.10;;;;;;2514380;55;21025;-70
2023/10/26 06:25:58;;;;;;;1.35;0.60;;;16.40;75.50;;;;;;2514793;55;20961;-70
2023/10/26 06:28:25;;;;;;;1.35;0.50;;;16.40;75.40;;;;;;2281200;56;21010;-71
2023/10/26 06:30:51;;;;;;;1.50;0.50;;;16.40;75.50;;;;;;2514122;55;21042;-71
2023/10/26 06:33:19;;;;;;;1.17;0.57;;;16.50;75.60;;;;;;2513966;55;20954;-72
2023/10/26 06:35:48;;;;;;;1.55;0.60;;;16.40;75.50;;;;;;2280878;56;20997;-70
2023/10/26 06:38:14;;;;;;;1.33;0.60;;;16.50;75.60;;;;;;2281726;56;20946;-70
2023/10/26 06:40:44;;;;;;;2.42;1.02;;;16.50;75.60;;;;;;2281226;56;21032;-70
2023/10/26 06:43:10;;;;;;;1.90;0.70;;;16.50;75.60;;;;;;2521708;54;20964;-71
2023/10/26 06:45:37;;;;;;;2.22;0.70;;;16.50;75.60;;;;;;2513586;54;21002;-70
2023/10/26 06:48:03;;;;;;;1.40;0.70;;;16.50;75.50;;;;;;2282234;55;20960;-70
2023/10/26 06:50:29;;;;;;;1.67;0.60;;;16.50;75.40;;;;;;2275477;54;21479;-72
2023/10/26 06:52:56;;;;;;;1.15;0.50;;;16.50;75.30;;;;;;2514122;55;20941;-74
2023/10/26 06:55:22;;;;;;;2.70;0.52;;;16.50;75.30;;;;;;2514299;55;20931;-72
2023/10/26 06:57:53;;;;;;;2.95;0.60;;;16.60;75.40;;;;;;2282199;56;20986;-72
2023/10/26 07:00:22;;;;;;;1.67;0.70;;;16.60;75.40;;;;;;2281561;55;21500;-71
2023/10/26 07:02:49;;;;;;;1.40;0.70;;;16.60;75.30;;;;;;2514161;55;20962;-69
2023/10/26 07:05:24;;;;;;;1.40;0.60;;;16.60;75.10;;;;;;2514327;55;21033;-71
2023/10/26 07:07:50;;;;;;;1.15;0.50;;;16.60;75.10;;;;;;2281184;56;21006;-69
2023/10/26 07:10:19;;;;;;;2.30;1.00;;;16.50;75.00;;;;;;2282092;55;20961;-70
2023/10/26 07:12:46;;;;;;;1.48;0.70;;;16.60;75.00;;;;;;2280686;56;21006;-70
2023/10/26 07:15:13;;;;;;;2.20;1.00;;;16.50;75.00;;;;;;2514343;55;21013;-72
2023/10/26 07:17:39;;;;;;;1.45;0.60;;;16.50;75.10;;;;;;2281290;56;21045;-70
2023/10/26 07:20:07;;;;;;;1.62;0.80;;;16.50;75.10;;;;;;2281341;55;20974;-69
2023/10/26 07:22:38;;;;;;;2.72;0.75;;;16.60;75.30;;;;;;2514066;55;21025;-71
2023/10/26 07:25:05;;;;;;;2.20;0.90;;;16.60;75.40;;;;;;2279187;55;20996;-69
2023/10/26 07:27:32;;;;;;;2.45;1.10;;;16.60;75.40;;;;;;2281117;56;21454;-69
2023/10/26 07:30:01;;;;;;;2.30;1.10;;;16.60;75.40;;;;;;2281321;56;21460;-70
2023/10/26 07:32:27;;;;;;;2.00;0.90;;;16.60;75.30;;;;;;2281030;56;20973;-70
2023/10/26 07:34:55;;;;;;;1.48;0.70;;;16.60;75.40;;;;;;2514623;55;21038;-70
2023/10/26 07:37:24;;;;;;;1.85;0.80;;;16.60;75.40;;;;;;2514668;55;21097;-71
2023/10/26 07:39:51;;;;;;;1.77;0.75;;;16.60;75.30;;;;;;2281351;56;21444;-72
2023/10/26 07:42:18;;;;;;;1.55;0.70;;;16.60;75.40;;;;;;2281674;56;21037;-68
2023/10/26 07:44:45;;;;;;;1.70;0.73;;;16.60;75.50;;;;;;2281318;56;20962;-70
2023/10/26 07:47:12;;;;;;;2.20;1.00;;;16.70;75.60;;;;;;2514867;54;20949;-69
2023/10/26 07:49:40;;;;;;;2.25;1.15;;;16.70;75.60;;;;;;2513471;55;20957;-70
2023/10/26 07:52:10;;;;;;;3.08;1.48;;;16.80;75.70;;;;;;2281314;55;21085;-70
2023/10/26 07:54:36;;;;;;;7.40;2.22;;;16.70;75.50;;;;;;2280859;56;20969;-69
2023/10/26 07:57:02;;;;;;;3.60;2.10;;;16.70;75.50;;;;;;2281087;56;21025;-72
2023/10/26 07:59:31;;;;;;;3.25;1.90;;;16.70;75.50;;;;;;2282459;55;21011;-68
2023/10/26 08:01:58;;;;;;;3.22;1.83;;;16.70;75.40;;;;;;2275498;55;20953;-69
2023/10/26 08:04:25;;;;;;;3.92;2.35;;;16.80;75.60;;;;;;2514288;55;21062;-71
2023/10/26 08:06:52;;;;;;;4.68;3.42;;;16.70;76.10;;;;;;2281186;56;20933;-71
2023/10/26 08:09:19;;;;;;;3.80;2.80;;;16.80;75.50;;;;;;2514400;55;21009;-70
2023/10/26 08:11:45;;;;;;;3.20;2.03;;;16.80;75.40;;;;;;2513139;55;21017;-69
2023/10/26 08:14:14;;;;;;;3.75;1.48;;;16.80;75.40;;;;;;2497694;55;21016;-69
2023/10/26 08:16:40;;;;;;;4.78;0.90;;;16.80;75.40;;;;;;2281330;55;21021;-68
2023/10/26 08:19:08;;;;;;;1.80;0.77;;;16.80;75.30;;;;;;2513824;55;20942;-69
2023/10/26 08:21:34;;;;;;;2.15;0.50;;;16.80;75.30;;;;;;2514048;54;21003;-69
2023/10/26 08:24:00;;;;;;;1.10;0.60;;;16.80;75.30;;;;;;2281408;56;21010;-69
2023/10/26 08:26:30;;;;;;;1.00;0.50;;;16.80;75.30;;;;;;2280710;56;20970;-69
2023/10/26 08:28:56;;;;;;;0.80;0.30;;;16.80;75.30;;;;;;2281738;55;20990;-72
2023/10/26 08:31:35;;;;;;;2.80;0.40;;;16.80;75.40;;;;;;2281556;55;21321;-71
2023/10/26 08:34:02;;;;;;;0.37;0.22;;;16.90;75.40;;;;;;2281954;56;20985;-70
2023/10/26 08:36:28;;;;;;;1.23;0.45;;;16.90;75.60;;;;;;2281349;54;20935;-70
2023/10/26 08:38:55;;;;;;;2.78;0.70;;;16.90;75.60;;;;;;2277831;55;21069;-69
2023/10/26 08:41:21;;;;;;;1.10;0.60;;;16.90;75.70;;;;;;2514840;55;20954;-69
2023/10/26 08:43:47;;;;;;;1.12;0.50;;;16.90;75.80;;;;;;2281438;56;21447;-71
2023/10/26 08:46:15;;;;;;;0.70;0.30;;;16.90;75.80;;;;;;2508483;55;20963;-71
2023/10/26 08:48:42;;;;;;;1.00;0.30;;;16.90;75.90;;;;;;2510880;55;21038;-69
2023/10/26 08:51:08;;;;;;;2.10;0.30;;;17.00;76.10;;;;;;2514539;55;20949;-70
2023/10/26 08:53:35;;;;;;;0.50;0.20;;;17.00;76.10;;;;;;2281557;56;21527;-70
2023/10/26 08:56:02;;;;;;;0.20;0.20;;;17.00;76.10;;;;;;2281589;56;21857;-72
2023/10/26 08:58:28;;;;;;;1.85;0.22;;;17.00;76.20;;;;;;2278077;55;21208;-71
2023/10/26 09:00:55;;;;;;;0.98;0.30;;;17.10;76.40;;;;;;2281345;55;21431;-69
2023/10/26 09:03:22;;;;;;;0.77;0.28;;;17.10;76.40;;;;;;2280804;55;21013;-70
2023/10/26 09:05:55;;;;;;;1.35;0.40;;;17.10;76.40;;;;;;2281287;55;20973;-71
2023/10/26 09:08:23;;;;;;;1.05;0.45;;;17.20;76.50;;;;;;2513847;55;21503;-69
2023/10/26 09:10:51;;;;;;;0.93;0.30;;;17.20;76.60;;;;;;2280390;56;20969;-70
2023/10/26 09:13:27;;;;;;;1.50;0.50;;;17.20;76.70;;;;;;2514672;55;20986;-70
2023/10/26 09:15:57;;;;;;;1.70;0.40;;;17.30;76.70;;;;;;2514642;55;20993;-71
2023/10/26 09:18:24;;;;;;;1.40;0.73;;;17.30;76.80;;;;;;2514602;55;21443;-70
2023/10/26 09:21:08;;;;;;;4.75;0.57;;;17.40;77.00;;;;;;2514384;55;21026;-69
2023/10/26 09:23:37;;;;;;;1.80;0.80;;;17.40;76.80;;;;;;2514500;55;20994;-70
2023/10/26 09:26:04;;;;;;;1.80;0.65;;;17.40;77.10;;;;;;2280953;55;20967;-73
2023/10/26 09:28:53;;;;;;;1.52;0.70;;;17.50;77.20;;;;;;2512012;55;21077;-70
2023/10/26 09:31:20;;;;;;;1.58;0.60;;;17.50;77.00;;;;;;2514572;55;21862;-70
2023/10/26 09:33:46;;;;;;;2.28;0.70;;;17.60;77.40;;;;;;2281373;56;21880;-70
2023/10/26 09:36:14;;;;;;;1.70;0.60;;;17.60;77.40;;;;;;2514565;55;20954;-71
2023/10/26 09:38:40;;;;;;;1.85;0.85;;;17.70;77.50;;;;;;2281207;56;20961;-70
2023/10/26 09:41:08;;;;;;;2.03;0.60;;;17.70;77.40;;;;;;2515151;55;21010;-69
2023/10/26 09:43:35;;;;;;;1.75;0.70;;;17.80;77.50;;;;;;2281656;56;21080;-68
2023/10/26 09:46:02;;;;;;;1.73;0.80;;;17.80;77.40;;;;;;2514882;54;21021;-69
2023/10/26 09:48:31;;;;;;;2.60;1.20;;;17.80;77.20;;;;;;2514421;55;20923;-69
2023/10/26 09:51:00;;;;;;;2.72;1.02;;;17.80;77.10;;;;;;2282320;55;21751;-71
2023/10/26 09:53:32;;;;;;;1.90;0.80;;;17.90;77.20;;;;;;2514636;55;21404;-70
2023/10/26 09:56:01;;;;;;;2.17;0.70;;;17.90;77.00;;;;;;2513934;55;20970;-72
2023/10/26 09:58:29;;;;;;;1.30;0.60;;;17.90;77.00;;;;;;2281971;55;21729;-69
2023/10/26 10:00:55;;;;;;;1.48;0.60;;;17.90;76.70;;;;;;2514452;55;21050;-73
2023/10/26 10:03:22;;;;;;;1.58;0.68;;;17.90;76.60;;;;;;2505909;54;21050;-70
2023/10/26 10:05:49;;;;;;;2.22;0.85;;;17.90;76.60;;;;;;2513365;55;20954;-70
2023/10/26 10:08:59;;;;;;;1.62;0.77;;;18.00;76.70;;;;;;2514561;55;20946;-72
2023/10/26 10:11:28;;;;;;;;;;;18.00;76.20;;;;;;2285074;56;21077;-71
2023/10/26 10:13:55;;;;;;;2.85;0.80;;;18.00;76.10;;;;;;2514198;55;20182;-70
2023/10/26 10:20:26;;;;;;;2.53;0.85;;;18.10;76.80;;;;;;2281428;55;20978;-72
2023/10/26 10:22:58;;;;;;;1.40;0.70;;;18.10;76.20;;;;;;2280279;56;21006;-71
2023/10/26 10:26:05;;;;;;;7.12;0.75;;;18.20;77.00;;;;;;2513030;54;20942;-71
2023/10/26 10:28:42;;;;;;;1.70;0.60;;;18.20;76.80;;;;;;2279392;55;21029;-70
2023/10/26 10:31:11;;;;;;;2.25;0.70;;;18.20;77.30;;;;;;2279426;55;20958;-71
2023/10/26 10:33:41;;;;;;;5.80;3.22;;;18.20;77.40;;;;;;2280841;56;20973;-71
2023/10/26 10:36:08;;;;;;;6.47;2.85;;;18.30;77.60;;;;;;2514339;55;21007;-72
2023/10/26 10:38:34;;;;;;;4.60;2.17;;;18.30;77.80;;;;;;2281485;56;20997;-72
2023/10/26 10:41:11;;;;;;;3.05;1.65;;;18.40;78.00;;;;;;2281759;56;21667;-70
2023/10/26 10:43:45;;;;;;;2.28;1.12;;;18.40;77.90;;;;;;2281160;56;21050;-70
2023/10/26 10:46:29;;;;;;;2.85;1.20;;;18.50;78.20;;;;;;2509020;55;21003;-70
2023/10/26 10:49:06;;;;;;;4.60;1.12;;;18.60;77.90;;;;;;2281434;56;21026;-69
2023/10/26 10:51:40;;;;;;;2.33;0.90;;;18.60;78.20;;;;;;2281364;56;21455;-69
2023/10/26 10:54:08;;;;;;;3.08;1.20;;;18.70;77.90;;;;;;2514943;54;21902;-71
2023/10/26 10:56:46;;;;;;;4.65;1.00;;;18.80;78.10;;;;;;2281566;55;21293;-72
2023/10/26 10:59:34;;;;;;;4.25;0.98;;;18.80;78.00;;;;;;2281435;56;20958;-72
2023/10/26 11:02:13;;;;;;;2.62;0.98;;;18.90;77.90;;;;;;2280727;55;21012;-72
2023/10/26 11:06:31;;;;;;;4.55;0.80;;;18.90;77.60;;;;;;2281535;56;20957;-70
2023/10/26 11:09:00;;;;;;;4.50;1.30;;;19.00;77.00;;;;;;2514614;55;21117;-70
2023/10/26 11:11:27;;;;;;;4.78;1.00;;;19.10;77.60;;;;;;2280712;55;21009;-70
2023/10/26 11:14:09;;;;;;;6.78;1.25;;;19.10;77.60;;;;;;2279433;55;21456;-72
2023/10/26 11:16:36;;;;;;;3.22;0.85;;;19.20;77.10;;;;;;2511967;55;20950;-70
2023/10/26 11:19:03;;;;;;;6.25;1.00;;;19.20;77.40;;;;;;2513499;55;20925;-70
2023/10/26 11:21:29;;;;;;;4.87;1.10;;;19.20;77.30;;;;;;2514450;55;21105;-73
2023/10/26 11:23:56;;;;;;;2.60;0.73;;;19.30;77.30;;;;;;2281535;56;20978;-71
2023/10/26 11:26:22;;;;;;;3.22;0.90;;;19.30;77.20;;;;;;2281022;56;20958;-71
2023/10/26 11:28:48;;;;;;;4.03;1.05;;;19.30;77.10;;;;;;2511399;55;21384;-70
2023/10/26 11:31:15;;;;;;;5.37;1.02;;;19.30;77.00;;;;;;2276047;55;21451;-70
2023/10/26 11:33:45;;;;;;;4.57;0.98;;;19.40;77.00;;;;;;2281433;56;21837;-70
2023/10/26 11:36:12;;;;;;;8.43;1.70;;;19.40;77.00;;;;;;2280608;55;21038;-71
2023/10/26 11:38:51;;;;;;;4.57;1.17;;;19.40;77.10;;;;;;2281598;55;20950;-72
2023/10/26 11:41:25;;;;;;;6.40;0.90;;;19.50;76.80;;;;;;2507066;55;21045;-70
2023/10/26 11:43:56;;;;;;;3.15;0.88;;;19.50;76.80;;;;;;2281249;56;20958;-71
2023/10/26 11:46:32;;;;;;;5.45;0.75;;;19.50;76.80;;;;;;2513336;54;21025;-70
2023/10/26 11:48:59;;;;;;;3.53;1.05;;;19.60;76.50;;;;;;2514238;55;20954;-70
2023/10/26 11:51:27;;;;;;;4.82;1.08;;;19.60;76.70;;;;;;2280238;55;20972;-71
2023/10/26 11:53:55;;;;;;;5.25;1.20;;;19.60;76.60;;;;;;2514587;55;21381;-70
2023/10/26 11:56:22;;;;;;;5.95;1.20;;;19.60;76.60;;;;;;2280998;56;20973;-70
2023/10/26 11:58:48;;;;;;;3.22;0.80;;;19.60;76.50;;;;;;2281424;55;20934;-70
2023/10/26 12:01:14;;;;;;;3.50;1.00;;;19.60;76.40;;;;;;2514437;55;20950;-69
2023/10/26 12:03:44;;;;;;;4.30;0.90;;;19.70;76.40;;;;;;2511107;54;20962;-70
2023/10/26 12:06:11;;;;;;;7.90;1.40;;;19.70;76.20;;;;;;2510315;55;20997;-70
2023/10/26 12:08:37;;;;;;;2.40;0.75;;;19.70;76.20;;;;;;2514147;54;21018;-71
2023/10/26 12:11:04;;;;;;;4.15;1.10;;;19.70;76.10;;;;;;2514410;55;20982;-70
2023/10/26 12:13:34;;;;;;;3.20;1.00;;;19.70;76.10;;;;;;2511827;55;21050;-72
2023/10/26 12:16:01;;;;;;;4.85;1.00;;;19.70;75.90;;;;;;2508669;55;20958;-71
2023/10/26 12:18:27;;;;;;;5.18;1.15;;;19.70;76.00;;;;;;2514713;55;21387;-71
2023/10/26 12:20:54;;;;;;;5.50;1.50;;;19.70;75.70;;;;;;2515109;55;21112;-71
2023/10/26 12:23:20;;;;;;;5.43;1.37;;;19.70;75.50;;;;;;2281299;56;20995;-72
2023/10/26 12:25:47;;;;;;;4.43;1.40;;;19.70;75.40;;;;;;2281020;56;20982;-71
2023/10/26 12:28:13;;;;;;;5.55;1.12;;;19.60;75.20;;;;;;2514418;55;20958;-70
2023/10/26 12:30:39;;;;;;;5.10;1.20;;;19.60;75.10;;;;;;2513726;55;21025;-71
2023/10/26 12:33:11;;;;;;;3.72;0.80;;;19.60;75.00;;;;;;2505836;54;20945;-71
2023/10/26 12:35:37;;;;;;;3.35;0.95;;;19.60;74.90;;;;;;2281338;56;20969;-71
2023/10/26 12:38:04;;;;;;;5.78;1.00;;;19.40;74.80;;;;;;2281774;56;21538;-71
2023/10/26 12:40:31;;;;;;;3.65;1.02;;;19.50;75.00;;;;;;2514415;55;21734;-71
2023/10/26 12:42:57;;;;;;;4.15;0.98;;;19.50;74.90;;;;;;2281783;56;21026;-70
2023/10/26 12:45:25;;;;;;;3.92;0.95;;;19.40;74.90;;;;;;2513806;55;20956;-70
2023/10/26 12:47:53;;;;;;;3.83;1.02;;;19.40;74.70;;;;;;2274176;54;20958;-70
2023/10/26 12:50:20;;;;;;;5.05;0.95;;;19.40;74.70;;;;;;2506708;54;20951;-70
2023/10/26 12:52:47;;;;;;;3.22;0.90;;;19.40;74.70;;;;;;2279914;56;20962;-72
2023/10/26 12:55:13;;;;;;;8.65;1.10;;;19.30;74.50;;;;;;2515441;55;20970;-70
2023/10/26 12:57:40;;;;;;;2.95;0.70;;;19.30;74.40;;;;;;2276110;55;20991;-69
2023/10/26 13:00:07;;;;;;;4.78;0.85;;;19.20;74.20;;;;;;2503006;55;21026;-70
2023/10/26 13:02:42;;;;;;;2.45;0.60;;;19.20;74.10;;;;;;2281544;56;21006;-71